sensor_id;sensor_type;location;lat;lon;timestamp;temperature;humidity
48328;DHT22;34136;51.022;7.082;2024-01-30T00:00:26;6.90;1.00
48328;DHT22;34136;51.022;7.082;2024-01-30T00:03:12;6.80;1.00
48328;DHT22;34136;51.022;7.082;2024-01-30T00:05:58;6.80;1.00
48328;DHT22;34136;51.022;7.082;2024-01-30T00:08:43;6.90;1.00
48328;DHT22;34136;51.022;7.082;2024-01-30T00:11:29;6.80;1.00
48328;DHT22;34136;51.022;7.082;2024-01-30T00:14:15;6.80;1.00
48328;DHT22;34136;51.022;7.082;2024-01-30T00:17:01;6.60;1.00
48328;DHT22;34136;51.022;7.082;2024-01-30T00:19:47;6.60;1.00
48328;DHT22;34136;51.022;7.082;2024-01-30T00:22:33;6.60;1.00
48328;DHT22;34136;51.022;7.082;2024-01-30T02:38:25;5.90;1.00
48328;DHT22;34136;51.022;7.082;2024-01-30T02:41:11;6.00;1.00
48328;DHT22;34136;51.022;7.082;2024-01-30T02:43:57;6.00;1.00
48328;DHT22;34136;51.022;7.082;2024-01-30T02:46:43;6.00;1.00
48328;DHT22;34136;51.022;7.082;2024-01-30T02:49:29;6.10;1.00
48328;DHT22;34136;51.022;7.082;2024-01-30T02:52:15;6.00;1.00
48328;DHT22;34136;51.022;7.082;2024-01-30T02:55:02;6.10;1.00
48328;DHT22;34136;51.022;7.082;2024-01-30T02:57:48;6.00;1.00
48328;DHT22;34136;51.022;7.082;2024-01-30T03:00:34;6.00;1.00
48328;DHT22;34136;51.022;7.082;2024-01-30T03:03:19;6.10;1.00
48328;DHT22;34136;51.022;7.082;2024-01-30T03:06:06;6.00;1.00
48328;DHT22;34136;51.022;7.082;2024-01-30T03:08:52;6.00;1.00
48328;DHT22;34136;51.022;7.082;2024-01-30T03:11:38;6.00;1.00
48328;DHT22;34136;51.022;7.082;2024-01-30T03:14:24;6.00;1.00
48328;DHT22;34136;51.022;7.082;2024-01-30T03:17:10;6.10;1.00
48328;DHT22;34136;51.022;7.082;2024-01-30T03:19:56;6.10;1.00
48328;DHT22;34136;51.022;7.082;2024-01-30T03:22:42;6.10;1.00
48328;DHT22;34136;51.022;7.082;2024-01-30T03:25:28;6.10;1.00
48328;DHT22;34136;51.022;7.082;2024-01-30T03:28:14;6.10;1.00
48328;DHT22;34136;51.022;7.082;2024-01-30T03:31:00;6.20;1.00
48328;DHT22;34136;51.022;7.082;2024-01-30T03:33:46;6.20;1.00
48328;DHT22;34136;51.022;7.082;2024-01-30T03:36:32;6.30;1.00
48328;DHT22;34136;51.022;7.082;2024-01-30T03:39:18;6.30;1.00
48328;DHT22;34136;51.022;7.082;2024-01-30T03:42:04;6.40;1.00
48328;DHT22;34136;51.022;7.082;2024-01-30T03:44:50;6.40;1.00
48328;DHT22;34136;51.022;7.082;2024-01-30T03:47:36;6.50;1.00
48328;DHT22;34136;51.022;7.082;2024-01-30T03:50:23;6.40;1.00
48328;DHT22;34136;51.022;7.082;2024-01-30T03:53:08;6.40;1.00
48328;DHT22;34136;51.022;7.082;2024-01-30T03:55:54;6.40;1.00
48328;DHT22;34136;51.022;7.082;2024-01-30T03:58:40;6.40;1.00
48328;DHT22;34136;51.022;7.082;2024-01-30T04:01:26;6.40;1.00
48328;DHT22;34136;51.022;7.082;2024-01-30T04:04:13;6.50;1.00
48328;DHT22;34136;51.022;7.082;2024-01-30T04:06:59;6.50;1.00
48328;DHT22;34136;51.022;7.082;2024-01-30T04:09:45;6.50;1.00
48328;DHT22;34136;51.022;7.082;2024-01-30T04:12:31;6.60;1.00
48328;DHT22;34136;51.022;7.082;2024-01-30T04:15:17;6.60;1.00
48328;DHT22;34136;51.022;7.082;2024-01-30T04:18:03;6.50;1.00
48328;DHT22;34136;51.022;7.082;2024-01-30T04:20:49;6.50;1.00
48328;DHT22;34136;51.022;7.082;2024-01-30T04:23:35;6.50;1.00
48328;DHT22;34136;51.022;7.082;2024-01-30T04:26:22;6.60;1.00
48328;DHT22;34136;51.022;7.082;2024-01-30T04:29:08;6.60;1.00
48328;DHT22;34136;51.022;7.082;2024-01-30T04:31:54;6.60;1.00
48328;DHT22;34136;51.022;7.082;2024-01-30T04:34:40;6.60;1.00
48328;DHT22;34136;51.022;7.082;2024-01-30T04:37:26;6.60;1.00
48328;DHT22;34136;51.022;7.082;2024-01-30T04:40:12;6.60;1.00
48328;DHT22;34136;51.022;7.082;2024-01-30T04:42:58;6.60;1.00
48328;DHT22;34136;51.022;7.082;2024-01-30T04:45:44;6.60;1.00
48328;DHT22;34136;51.022;7.082;2024-01-30T04:48:30;6.60;1.00
48328;DHT22;34136;51.022;7.082;2024-01-30T04:51:16;6.70;1.00
48328;DHT22;34136;51.022;7.082;2024-01-30T04:54:02;6.60;1.00
48328;DHT22;34136;51.022;7.082;2024-01-30T04:56:48;6.60;1.00
48328;DHT22;34136;51.022;7.082;2024-01-30T04:59:35;6.60;1.00
48328;DHT22;34136;51.022;7.082;2024-01-30T05:02:21;6.60;1.00
48328;DHT22;34136;51.022;7.082;2024-01-30T05:05:07;6.60;1.00
48328;DHT22;34136;51.022;7.082;2024-01-30T05:07:53;6.50;1.00
48328;DHT22;34136;51.022;7.082;2024-01-30T05:10:39;6.60;1.00
48328;DHT22;34136;51.022;7.082;2024-01-30T05:13:25;6.60;1.00
48328;DHT22;34136;51.022;7.082;2024-01-30T05:16:11;6.60;1.00
48328;DHT22;34136;51.022;7.082;2024-01-30T05:18:57;6.50;1.00
48328;DHT22;34136;51.022;7.082;2024-01-30T05:21:43;6.60;1.00
48328;DHT22;34136;51.022;7.082;2024-01-30T05:24:29;6.60;1.00
48328;DHT22;34136;51.022;7.082;2024-01-30T05:27:15;6.60;1.00
48328;DHT22;34136;51.022;7.082;2024-01-30T05:30:01;6.60;1.00
48328;DHT22;34136;51.022;7.082;2024-01-30T05:32:47;6.50;1.00
48328;DHT22;34136;51.022;7.082;2024-01-30T05:35:33;6.50;1.00
48328;DHT22;34136;51.022;7.082;2024-01-30T05:38:19;6.40;1.00
48328;DHT22;34136;51.022;7.082;2024-01-30T05:41:05;6.40;1.00
48328;DHT22;34136;51.022;7.082;2024-01-30T05:43:54;6.30;1.00
48328;DHT22;34136;51.022;7.082;2024-01-30T05:46:40;6.30;1.00
48328;DHT22;34136;51.022;7.082;2024-01-30T05:49:26;6.30;1.00
48328;DHT22;34136;51.022;7.082;2024-01-30T05:52:12;6.20;1.00
48328;DHT22;34136;51.022;7.082;2024-01-30T05:54:58;6.20;1.00
48328;DHT22;34136;51.022;7.082;2024-01-30T05:57:44;6.20;1.00
48328;DHT22;34136;51.022;7.082;2024-01-30T06:00:30;6.10;1.00
48328;DHT22;34136;51.022;7.082;2024-01-30T06:03:16;6.10;1.00
48328;DHT22;34136;51.022;7.082;2024-01-30T06:09:29;6.20;1.00
48328;DHT22;34136;51.022;7.082;2024-01-30T06:12:32;6.20;1.00
48328;DHT22;34136;51.022;7.082;2024-01-30T06:15:17;6.30;1.00
48328;DHT22;34136;51.022;7.082;2024-01-30T06:18:04;6.20;1.00
48328;DHT22;34136;51.022;7.082;2024-01-30T06:20:50;6.20;1.00
48328;DHT22;34136;51.022;7.082;2024-01-30T06:23:36;6.40;1.00
48328;DHT22;34136;51.022;7.082;2024-01-30T06:26:22;6.60;1.00
48328;DHT22;34136;51.022;7.082;2024-01-30T06:29:08;6.70;1.00
48328;DHT22;34136;51.022;7.082;2024-01-30T06:31:54;6.80;1.00
48328;DHT22;34136;51.022;7.082;2024-01-30T06:34:41;6.90;1.00
48328;DHT22;34136;51.022;7.082;2024-01-30T06:37:27;6.90;1.00
48328;DHT22;34136;51.022;7.082;2024-01-30T06:40:13;6.90;1.00
48328;DHT22;34136;51.022;7.082;2024-01-30T06:42:59;6.90;1.00
48328;DHT22;34136;51.022;7.082;2024-01-30T06:45:45;6.90;1.00
48328;DHT22;34136;51.022;7.082;2024-01-30T06:48:31;6.90;1.00
48328;DHT22;34136;51.022;7.082;2024-01-30T06:51:17;7.00;1.00
48328;DHT22;34136;51.022;7.082;2024-01-30T06:54:04;7.20;1.00
48328;DHT22;34136;51.022;7.082;2024-01-30T06:56:50;7.10;1.00
48328;DHT22;34136;51.022;7.082;2024-01-30T06:59:36;7.10;1.00
48328;DHT22;34136;51.022;7.082;2024-01-30T07:02:22;7.10;1.00
48328;DHT22;34136;51.022;7.082;2024-01-30T07:05:07;7.10;1.00
48328;DHT22;34136;51.022;7.082;2024-01-30T07:07:53;7.30;1.00
48328;DHT22;34136;51.022;7.082;2024-01-30T07:10:39;7.30;1.00
48328;DHT22;34136;51.022;7.082;2024-01-30T07:13:25;7.20;1.00
48328;DHT22;34136;51.022;7.082;2024-01-30T07:16:11;7.20;1.00
48328;DHT22;34136;51.022;7.082;2024-01-30T07:18:57;7.20;1.00
48328;DHT22;34136;51.022;7.082;2024-01-30T07:21:43;7.30;1.00
48328;DHT22;34136;51.022;7.082;2024-01-30T07:24:29;7.30;1.00
48328;DHT22;34136;51.022;7.082;2024-01-30T07:27:15;7.30;1.00
48328;DHT22;34136;51.022;7.082;2024-01-30T07:30:01;7.40;1.00
48328;DHT22;34136;51.022;7.082;2024-01-30T07:32:48;7.50;1.00
48328;DHT22;34136;51.022;7.082;2024-01-30T07:35:36;7.60;1.00
48328;DHT22;34136;51.022;7.082;2024-01-30T07:38:22;7.70;1.00
48328;DHT22;34136;51.022;7.082;2024-01-30T07:41:08;7.80;1.00
48328;DHT22;34136;51.022;7.082;2024-01-30T07:43:54;7.90;1.00
48328;DHT22;34136;51.022;7.082;2024-01-30T07:46:40;7.90;1.00
48328;DHT22;34136;51.022;7.082;2024-01-30T07:49:26;8.00;1.00
48328;DHT22;34136;51.022;7.082;2024-01-30T07:52:12;8.00;1.00
48328;DHT22;34136;51.022;7.082;2024-01-30T07:54:57;8.00;1.00
48328;DHT22;34136;51.022;7.082;2024-01-30T08:01:26;8.00;1.00
48328;DHT22;34136;51.022;7.082;2024-01-30T08:04:16;8.00;1.00
48328;DHT22;34136;51.022;7.082;2024-01-30T08:07:04;8.10;1.00
48328;DHT22;34136;51.022;7.082;2024-01-30T08:09:50;8.20;1.00
48328;DHT22;34136;51.022;7.082;2024-01-30T08:12:36;8.30;1.00
48328;DHT22;34136;51.022;7.082;2024-01-30T08:15:22;8.30;1.00
48328;DHT22;34136;51.022;7.082;2024-01-30T08:18:09;8.30;1.00
48328;DHT22;34136;51.022;7.082;2024-01-30T08:20:57;8.30;1.00
48328;DHT22;34136;51.022;7.082;2024-01-30T08:23:43;8.30;1.00
48328;DHT22;34136;51.022;7.082;2024-01-30T08:26:30;8.40;1.00
48328;DHT22;34136;51.022;7.082;2024-01-30T08:29:16;8.50;1.00
48328;DHT22;34136;51.022;7.082;2024-01-30T08:35:13;8.50;1.00
48328;DHT22;34136;51.022;7.082;2024-01-30T08:38:04;8.50;1.00
48328;DHT22;34136;51.022;7.082;2024-01-30T08:40:55;8.60;1.00
48328;DHT22;34136;51.022;7.082;2024-01-30T08:47:28;8.70;1.00
48328;DHT22;34136;51.022;7.082;2024-01-30T08:50:21;8.80;1.00
48328;DHT22;34136;51.022;7.082;2024-01-30T10:54:55;11.20;99.90
48328;DHT22;34136;51.022;7.082;2024-01-30T10:57:41;11.20;99.90
48328;DHT22;34136;51.022;7.082;2024-01-30T11:00:27;11.20;99.90
48328;DHT22;34136;51.022;7.082;2024-01-30T11:03:14;11.20;99.90
48328;DHT22;34136;51.022;7.082;2024-01-30T11:06:00;11.30;99.90
48328;DHT22;34136;51.022;7.082;2024-01-30T11:08:46;11.40;99.90
48328;DHT22;34136;51.022;7.082;2024-01-30T11:11:46;11.40;99.90
48328;DHT22;34136;51.022;7.082;2024-01-30T11:14:33;11.40;99.90
48328;DHT22;34136;51.022;7.082;2024-01-30T11:17:19;11.50;99.90
48328;DHT22;34136;51.022;7.082;2024-01-30T11:20:11;11.40;99.90
48328;DHT22;34136;51.022;7.082;2024-01-30T11:22:57;11.40;99.90
48328;DHT22;34136;51.022;7.082;2024-01-30T11:25:44;11.50;99.90
48328;DHT22;34136;51.022;7.082;2024-01-30T11:28:33;11.60;99.90
48328;DHT22;34136;51.022;7.082;2024-01-30T11:31:19;11.60;99.90
48328;DHT22;34136;51.022;7.082;2024-01-30T11:34:05;11.70;99.90
48328;DHT22;34136;51.022;7.082;2024-01-30T11:36:52;11.70;99.90
48328;DHT22;34136;51.022;7.082;2024-01-30T11:39:39;11.80;99.90
48328;DHT22;34136;51.022;7.082;2024-01-30T11:42:25;11.90;99.90
48328;DHT22;34136;51.022;7.082;2024-01-30T11:45:12;11.90;99.90
48328;DHT22;34136;51.022;7.082;2024-01-30T11:47:58;12.00;99.90
48328;DHT22;34136;51.022;7.082;2024-01-30T11:50:44;12.10;99.90
48328;DHT22;34136;51.022;7.082;2024-01-30T11:53:30;12.20;99.90
48328;DHT22;34136;51.022;7.082;2024-01-30T11:56:16;12.20;99.90
48328;DHT22;34136;51.022;7.082;2024-01-30T11:59:05;12.30;99.90
48328;DHT22;34136;51.022;7.082;2024-01-30T12:01:52;12.30;99.90
48328;DHT22;34136;51.022;7.082;2024-01-30T12:04:41;12.40;99.90
48328;DHT22;34136;51.022;7.082;2024-01-30T12:07:30;12.50;99.90
48328;DHT22;34136;51.022;7.082;2024-01-30T12:10:18;12.40;99.90
48328;DHT22;34136;51.022;7.082;2024-01-30T12:13:10;12.40;99.90
48328;DHT22;34136;51.022;7.082;2024-01-30T12:15:56;12.60;99.90
48328;DHT22;34136;51.022;7.082;2024-01-30T12:18:49;12.60;99.90
48328;DHT22;34136;51.022;7.082;2024-01-30T12:21:35;12.60;99.90
48328;DHT22;34136;51.022;7.082;2024-01-30T12:24:21;12.50;99.90
48328;DHT22;34136;51.022;7.082;2024-01-30T12:27:08;12.50;99.90
48328;DHT22;34136;51.022;7.082;2024-01-30T12:29:57;12.60;99.90
48328;DHT22;34136;51.022;7.082;2024-01-30T12:32:44;12.60;99.90
48328;DHT22;34136;51.022;7.082;2024-01-30T12:35:36;12.70;99.90
48328;DHT22;34136;51.022;7.082;2024-01-30T12:38:24;12.70;99.90
48328;DHT22;34136;51.022;7.082;2024-01-30T12:41:10;12.70;99.90
48328;DHT22;34136;51.022;7.082;2024-01-30T12:44:09;12.80;99.90
48328;DHT22;34136;51.022;7.082;2024-01-30T12:47:08;12.80;99.90
48328;DHT22;34136;51.022;7.082;2024-01-30T12:49:57;12.80;99.90
48328;DHT22;34136;51.022;7.082;2024-01-30T12:52:46;12.80;99.90
48328;DHT22;34136;51.022;7.082;2024-01-30T12:55:35;12.80;99.90
48328;DHT22;34136;51.022;7.082;2024-01-30T12:58:21;12.90;99.90
48328;DHT22;34136;51.022;7.082;2024-01-30T13:01:10;12.90;99.90
48328;DHT22;34136;51.022;7.082;2024-01-30T13:04:00;13.00;99.90
48328;DHT22;34136;51.022;7.082;2024-01-30T13:06:50;13.00;99.90
48328;DHT22;34136;51.022;7.082;2024-01-30T13:09:36;13.00;99.90
48328;DHT22;34136;51.022;7.082;2024-01-30T13:12:22;13.10;99.90
48328;DHT22;34136;51.022;7.082;2024-01-30T13:15:08;13.10;99.90
48328;DHT22;34136;51.022;7.082;2024-01-30T13:17:55;13.00;99.90
48328;DHT22;34136;51.022;7.082;2024-01-30T13:20:40;13.00;99.90
48328;DHT22;34136;51.022;7.082;2024-01-30T13:23:26;13.00;99.90
48328;DHT22;34136;51.022;7.082;2024-01-30T13:26:12;13.00;99.90
48328;DHT22;34136;51.022;7.082;2024-01-30T13:28:59;12.90;99.90
48328;DHT22;34136;51.022;7.082;2024-01-30T13:31:45;12.90;99.90
48328;DHT22;34136;51.022;7.082;2024-01-30T13:34:31;12.90;99.90
48328;DHT22;34136;51.022;7.082;2024-01-30T13:37:17;12.90;99.90
48328;DHT22;34136;51.022;7.082;2024-01-30T13:40:04;12.90;99.90
48328;DHT22;34136;51.022;7.082;2024-01-30T13:42:50;12.80;99.90
48328;DHT22;34136;51.022;7.082;2024-01-30T13:45:36;12.90;99.90
48328;DHT22;34136;51.022;7.082;2024-01-30T13:48:22;12.80;99.90
48328;DHT22;34136;51.022;7.082;2024-01-30T13:51:08;12.80;99.90
48328;DHT22;34136;51.022;7.082;2024-01-30T13:53:54;12.70;99.90
48328;DHT22;34136;51.022;7.082;2024-01-30T13:56:40;12.70;99.90
48328;DHT22;34136;51.022;7.082;2024-01-30T13:59:26;12.70;99.90
48328;DHT22;34136;51.022;7.082;2024-01-30T14:02:13;12.70;99.90
48328;DHT22;34136;51.022;7.082;2024-01-30T14:04:59;12.60;99.90
48328;DHT22;34136;51.022;7.082;2024-01-30T14:07:51;12.60;99.90
48328;DHT22;34136;51.022;7.082;2024-01-30T14:10:37;12.60;99.90
48328;DHT22;34136;51.022;7.082;2024-01-30T14:13:23;12.70;99.90
48328;DHT22;34136;51.022;7.082;2024-01-30T14:16:09;12.60;99.90
48328;DHT22;34136;51.022;7.082;2024-01-30T14:18:55;12.50;99.90
48328;DHT22;34136;51.022;7.082;2024-01-30T14:21:42;12.50;99.90
48328;DHT22;34136;51.022;7.082;2024-01-30T14:24:28;12.40;99.90
48328;DHT22;34136;51.022;7.082;2024-01-30T14:27:14;12.40;99.90
48328;DHT22;34136;51.022;7.082;2024-01-30T14:30:00;12.40;99.90
48328;DHT22;34136;51.022;7.082;2024-01-30T14:32:46;12.50;99.90
48328;DHT22;34136;51.022;7.082;2024-01-30T14:35:32;12.50;99.90
48328;DHT22;34136;51.022;7.082;2024-01-30T14:38:20;12.50;99.90
48328;DHT22;34136;51.022;7.082;2024-01-30T14:41:10;12.50;99.90
48328;DHT22;34136;51.022;7.082;2024-01-30T14:43:56;12.50;99.90
48328;DHT22;34136;51.022;7.082;2024-01-30T14:46:42;12.60;99.90
48328;DHT22;34136;51.022;7.082;2024-01-30T14:49:28;12.50;99.90
48328;DHT22;34136;51.022;7.082;2024-01-30T14:52:14;12.50;99.90
48328;DHT22;34136;51.022;7.082;2024-01-30T14:55:00;12.50;99.90
48328;DHT22;34136;51.022;7.082;2024-01-30T14:57:46;12.50;99.90
48328;DHT22;34136;51.022;7.082;2024-01-30T15:00:34;12.50;99.90
48328;DHT22;34136;51.022;7.082;2024-01-30T15:03:20;12.50;99.90
48328;DHT22;34136;51.022;7.082;2024-01-30T15:06:06;12.60;99.90
48328;DHT22;34136;51.022;7.082;2024-01-30T15:08:52;12.50;99.90
48328;DHT22;34136;51.022;7.082;2024-01-30T15:11:38;12.50;99.90
48328;DHT22;34136;51.022;7.082;2024-01-30T15:14:25;12.50;99.90
48328;DHT22;34136;51.022;7.082;2024-01-30T15:17:11;12.40;99.90
48328;DHT22;34136;51.022;7.082;2024-01-30T15:19:56;12.50;99.90
48328;DHT22;34136;51.022;7.082;2024-01-30T15:22:46;12.40;99.90
48328;DHT22;34136;51.022;7.082;2024-01-30T15:29:06;12.40;99.90
48328;DHT22;34136;51.022;7.082;2024-01-30T15:31:52;12.40;99.90
48328;DHT22;34136;51.022;7.082;2024-01-30T15:34:38;12.40;99.90
48328;DHT22;34136;51.022;7.082;2024-01-30T15:37:24;12.40;99.90
48328;DHT22;34136;51.022;7.082;2024-01-30T15:40:10;12.40;99.90
48328;DHT22;34136;51.022;7.082;2024-01-30T15:42:56;12.40;99.90
48328;DHT22;34136;51.022;7.082;2024-01-30T15:45:42;12.40;99.90
48328;DHT22;34136;51.022;7.082;2024-01-30T15:48:34;12.30;99.90
48328;DHT22;34136;51.022;7.082;2024-01-30T15:51:20;12.30;99.90
48328;DHT22;34136;51.022;7.082;2024-01-30T15:54:06;12.30;99.90
48328;DHT22;34136;51.022;7.082;2024-01-30T15:56:56;12.30;99.90
48328;DHT22;34136;51.022;7.082;2024-01-30T15:59:42;12.30;99.90
48328;DHT22;34136;51.022;7.082;2024-01-30T16:02:31;12.30;99.90
48328;DHT22;34136;51.022;7.082;2024-01-30T16:05:17;12.30;99.90
48328;DHT22;34136;51.022;7.082;2024-01-30T16:08:04;12.30;99.90
48328;DHT22;34136;51.022;7.082;2024-01-30T16:10:50;12.20;99.90
48328;DHT22;34136;51.022;7.082;2024-01-30T16:13:37;12.00;99.90
48328;DHT22;34136;51.022;7.082;2024-01-30T16:16:30;12.00;99.90
48328;DHT22;34136;51.022;7.082;2024-01-30T16:19:19;11.90;99.90
48328;DHT22;34136;51.022;7.082;2024-01-30T16:22:05;11.70;99.90
48328;DHT22;34136;51.022;7.082;2024-01-30T16:24:51;11.60;99.90
48328;DHT22;34136;51.022;7.082;2024-01-30T16:27:38;11.60;99.90
48328;DHT22;34136;51.022;7.082;2024-01-30T16:30:24;11.40;99.90
48328;DHT22;34136;51.022;7.082;2024-01-30T16:33:13;11.40;99.90
48328;DHT22;34136;51.022;7.082;2024-01-30T16:35:59;11.30;99.90
48328;DHT22;34136;51.022;7.082;2024-01-30T16:38:54;11.30;99.90
48328;DHT22;34136;51.022;7.082;2024-01-30T16:41:42;11.20;99.90
48328;DHT22;34136;51.022;7.082;2024-01-30T16:44:29;11.20;99.90
48328;DHT22;34136;51.022;7.082;2024-01-30T16:47:15;11.20;99.90
48328;DHT22;34136;51.022;7.082;2024-01-30T16:50:01;11.10;99.90
48328;DHT22;34136;51.022;7.082;2024-01-30T16:52:47;11.10;99.90
48328;DHT22;34136;51.022;7.082;2024-01-30T16:55:54;11.10;99.90
48328;DHT22;34136;51.022;7.082;2024-01-30T16:58:43;11.00;99.90
48328;DHT22;34136;51.022;7.082;2024-01-30T17:01:29;11.00;99.90
48328;DHT22;34136;51.022;7.082;2024-01-30T17:04:15;11.10;99.90
48328;DHT22;34136;51.022;7.082;2024-01-30T17:07:01;11.00;99.90
48328;DHT22;34136;51.022;7.082;2024-01-30T17:09:50;11.00;99.90
48328;DHT22;34136;51.022;7.082;2024-01-30T17:12:47;11.00;99.90
48328;DHT22;34136;51.022;7.082;2024-01-30T17:15:38;11.00;99.90
48328;DHT22;34136;51.022;7.082;2024-01-30T17:18:24;11.00;99.90
48328;DHT22;34136;51.022;7.082;2024-01-30T17:21:15;11.00;99.90
48328;DHT22;34136;51.022;7.082;2024-01-30T17:24:01;10.90;99.90
48328;DHT22;34136;51.022;7.082;2024-01-30T17:26:47;10.90;99.90
48328;DHT22;34136;51.022;7.082;2024-01-30T18:54:56;10.20;99.90
48328;DHT22;34136;51.022;7.082;2024-01-30T18:57:42;10.20;99.90
48328;DHT22;34136;51.022;7.082;2024-01-30T19:00:28;10.20;99.90
48328;DHT22;34136;51.022;7.082;2024-01-30T19:03:15;10.20;99.90
48328;DHT22;34136;51.022;7.082;2024-01-30T19:06:00;10.20;99.90
48328;DHT22;34136;51.022;7.082;2024-01-30T19:08:46;10.20;99.90
48328;DHT22;34136;51.022;7.082;2024-01-30T19:11:32;10.10;99.90
48328;DHT22;34136;51.022;7.082;2024-01-30T19:14:19;10.10;99.90
48328;DHT22;34136;51.022;7.082;2024-01-30T19:17:05;10.10;99.90
48328;DHT22;34136;51.022;7.082;2024-01-30T19:19:50;10.10;99.90
48328;DHT22;34136;51.022;7.082;2024-01-30T19:22:36;10.00;99.90
48328;DHT22;34136;51.022;7.082;2024-01-30T19:25:22;9.90;99.90
48328;DHT22;34136;51.022;7.082;2024-01-30T19:28:08;10.00;99.90
48328;DHT22;34136;51.022;7.082;2024-01-30T19:30:54;9.90;99.90
48328;DHT22;34136;51.022;7.082;2024-01-30T19:33:40;9.90;99.90
48328;DHT22;34136;51.022;7.082;2024-01-30T19:36:26;9.90;99.90
48328;DHT22;34136;51.022;7.082;2024-01-30T19:39:12;9.80;99.90
48328;DHT22;34136;51.022;7.082;2024-01-30T19:41:58;9.80;99.90
48328;DHT22;34136;51.022;7.082;2024-01-30T19:44:44;9.80;99.90
48328;DHT22;34136;51.022;7.082;2024-01-30T19:47:30;9.70;99.90
48328;DHT22;34136;51.022;7.082;2024-01-30T19:50:17;9.70;99.90
48328;DHT22;34136;51.022;7.082;2024-01-30T19:53:04;9.70;99.90
48328;DHT22;34136;51.022;7.082;2024-01-30T20:58:42;9.40;99.90
48328;DHT22;34136;51.022;7.082;2024-01-30T21:39:38;9.10;99.90
48328;DHT22;34136;51.022;7.082;2024-01-30T21:42:25;9.10;99.90
48328;DHT22;34136;51.022;7.082;2024-01-30T21:45:14;9.00;99.90
48328;DHT22;34136;51.022;7.082;2024-01-30T21:48:00;9.00;99.90
48328;DHT22;34136;51.022;7.082;2024-01-30T21:50:46;9.00;99.90
48328;DHT22;34136;51.022;7.082;2024-01-30T21:53:34;9.00;99.90
48328;DHT22;34136;51.022;7.082;2024-01-30T21:56:20;9.00;99.90
48328;DHT22;34136;51.022;7.082;2024-01-30T21:59:06;9.00;99.90
48328;DHT22;34136;51.022;7.082;2024-01-30T22:01:52;9.00;99.90
48328;DHT22;34136;51.022;7.082;2024-01-30T22:04:38;8.90;99.90
48328;DHT22;34136;51.022;7.082;2024-01-30T22:07:24;8.90;99.90
48328;DHT22;34136;51.022;7.082;2024-01-30T22:10:10;8.80;99.90
48328;DHT22;34136;51.022;7.082;2024-01-30T22:12:56;8.80;99.90
48328;DHT22;34136;51.022;7.082;2024-01-30T22:15:42;8.80;99.90
48328;DHT22;34136;51.022;7.082;2024-01-30T22:18:28;8.70;99.90
48328;DHT22;34136;51.022;7.082;2024-01-30T22:21:14;8.70;99.90
48328;DHT22;34136;51.022;7.082;2024-01-30T22:24:00;8.70;99.90
48328;DHT22;34136;51.022;7.082;2024-01-30T22:26:46;8.60;99.90
48328;DHT22;34136;51.022;7.082;2024-01-30T22:29:32;8.60;99.90
48328;DHT22;34136;51.022;7.082;2024-01-30T22:32:18;8.60;99.90
48328;DHT22;34136;51.022;7.082;2024-01-30T22:35:04;8.60;99.90
48328;DHT22;34136;51.022;7.082;2024-01-30T22:37:51;8.50;99.90
48328;DHT22;34136;51.022;7.082;2024-01-30T22:40:36;8.60;99.90
48328;DHT22;34136;51.022;7.082;2024-01-30T22:43:23;8.60;99.90
48328;DHT22;34136;51.022;7.082;2024-01-30T22:46:09;8.70;99.90
48328;DHT22;34136;51.022;7.082;2024-01-30T22:48:55;8.70;99.90
48328;DHT22;34136;51.022;7.082;2024-01-30T22:51:41;8.60;99.90
48328;DHT22;34136;51.022;7.082;2024-01-30T22:54:27;8.60;99.90
48328;DHT22;34136;51.022;7.082;2024-01-30T22:57:13;8.70;99.90
48328;DHT22;34136;51.022;7.082;2024-01-30T22:59:59;8.60;99.90
48328;DHT22;34136;51.022;7.082;2024-01-30T23:02:45;8.60;99.90
48328;DHT22;34136;51.022;7.082;2024-01-30T23:05:31;8.50;99.90
48328;DHT22;34136;51.022;7.082;2024-01-30T23:08:17;8.50;99.90
48328;DHT22;34136;51.022;7.082;2024-01-30T23:11:03;8.50;99.90
48328;DHT22;34136;51.022;7.082;2024-01-30T23:13:49;8.50;99.90
48328;DHT22;34136;51.022;7.082;2024-01-30T23:16:35;8.40;99.90
48328;DHT22;34136;51.022;7.082;2024-01-30T23:19:21;8.40;99.90
48328;DHT22;34136;51.022;7.082;2024-01-30T23:22:07;8.40;99.90
48328;DHT22;34136;51.022;7.082;2024-01-30T23:24:53;8.40;99.90
48328;DHT22;34136;51.022;7.082;2024-01-30T23:27:39;8.30;1.40
48328;DHT22;34136;51.022;7.082;2024-01-30T23:30:25;8.30;1.00
48328;DHT22;34136;51.022;7.082;2024-01-30T23:33:12;8.40;1.00
48328;DHT22;34136;51.022;7.082;2024-01-30T23:35:58;8.40;1.00
48328;DHT22;34136;51.022;7.082;2024-01-30T23:38:44;8.30;1.00
48328;DHT22;34136;51.022;7.082;2024-01-30T23:41:30;8.30;1.00
48328;DHT22;34136;51.022;7.082;2024-01-30T23:44:16;8.30;1.00
48328;DHT22;34136;51.022;7.082;2024-01-30T23:47:02;8.40;1.00
48328;DHT22;34136;51.022;7.082;2024-01-30T23:49:48;8.40;1.00
48328;DHT22;34136;51.022;7.082;2024-01-30T23:52:39;8.40;1.00
48328;DHT22;34136;51.022;7.082;2024-01-30T23:55:25;8.40;1.00
48328;DHT22;34136;51.022;7.082;2024-01-30T23:58:11;8.30;1.00
